Time;durP1;ratioP1;P1;durP2;ratioP2;P2;SDS_P1;SDS_P2;PMS_P1;PMS_P2;Temp;Humidity;BMP_temperature;BMP_pressure;BME280_temperature;BME280_humidity;BME280_pressure;Samples;Min_cycle;Max_cycle;Signal;HPM_P1;HPM_P2
2023/03/26 00:00:20;;;;;;;4.13;1.70;;;8.60;99.90;;;;;;5157434;28;20449;-52
2023/03/26 00:02:51;;;;;;;4.47;1.27;;;8.60;99.90;;;;;;5161475;28;20555;-52
2023/03/26 00:05:21;;;;;;;3.33;2.10;;;8.60;99.90;;;;;;5168211;28;20193;-51
2023/03/26 00:07:52;;;;;;;4.83;2.30;;;8.60;99.90;;;;;;5155039;28;20182;-51
2023/03/26 00:10:24;;;;;;;2.30;2.10;;;8.60;99.90;;;;;;5162382;28;20658;-54
2023/03/26 00:12:54;;;;;;;16.40;5.93;;;8.50;99.90;;;;;;5152980;28;20252;-53
2023/03/26 00:15:25;;;;;;;3.97;2.97;;;8.70;99.90;;;;;;5165362;28;20932;-52
2023/03/26 00:17:56;;;;;;;2.23;2.13;;;8.60;99.90;;;;;;5163683;28;20189;-52
2023/03/26 00:20:28;;;;;;;2.97;1.60;;;8.60;99.90;;;;;;5154430;28;20516;-53
2023/03/26 00:23:00;;;;;;;1.90;1.80;;;8.60;99.90;;;;;;5166673;28;20221;-51
2023/03/26 00:25:31;;;;;;;3.67;2.17;;;8.60;99.90;;;;;;5165567;28;20440;-51
2023/03/26 00:28:02;;;;;;;3.60;2.03;;;8.50;99.90;;;;;;5164201;28;20477;-51
2023/03/26 00:30:40;;;;;;;6.23;2.20;;;8.60;99.90;;;;;;5165003;28;20173;-52
2023/03/26 00:33:11;;;;;;;2.13;2.03;;;8.60;99.90;;;;;;5163917;28;20525;-52
2023/03/26 00:35:45;;;;;;;3.80;1.77;;;8.50;99.90;;;;;;5170544;28;20959;-50
2023/03/26 00:38:16;;;;;;;3.53;1.30;;;8.60;99.90;;;;;;5164931;28;20179;-51
2023/03/26 00:40:49;;;;;;;4.20;1.30;;;8.60;99.90;;;;;;5165212;28;20499;-51
2023/03/26 00:43:21;;;;;;;5.90;1.50;;;8.50;99.90;;;;;;5173548;28;20622;-52
2023/03/26 00:45:53;;;;;;;2.90;1.40;;;8.50;99.90;;;;;;5170900;28;20439;-51
2023/03/26 00:48:28;;;;;;;1.47;1.13;;;8.60;99.90;;;;;;5176039;28;20874;-52
2023/03/26 00:51:00;;;;;;;4.90;1.30;;;8.50;99.90;;;;;;5164197;28;20428;-50
2023/03/26 00:53:30;;;;;;;1.50;1.40;;;8.50;99.90;;;;;;5165485;28;20510;-50
2023/03/26 00:56:01;;;;;;;2.57;1.17;;;8.50;99.90;;;;;;5167158;28;20448;-52
2023/03/26 00:58:34;;;;;;;3.60;1.40;;;8.60;99.90;;;;;;5170909;28;20190;-51
2023/03/26 01:01:09;;;;;;;8.30;3.03;;;8.30;99.90;;;;;;5179033;28;20439;-51
2023/03/26 01:03:42;;;;;;;3.10;1.17;;;8.30;99.90;;;;;;5165691;28;21155;-50
2023/03/26 01:06:26;;;;;;;2.63;0.90;;;8.30;99.90;;;;;;5169006;28;20554;-53
2023/03/26 01:09:03;;;;;;;1.07;0.97;;;8.30;99.90;;;;;;5159700;28;20432;-51
2023/03/26 01:11:34;;;;;;;1.23;0.97;;;8.50;99.90;;;;;;5160844;28;20870;-51
2023/03/26 01:14:25;;;;;;;1.70;0.90;;;8.40;99.90;;;;;;5165882;28;20801;-52
2023/03/26 01:16:59;;;;;;;2.10;1.20;;;8.40;99.90;;;;;;5158905;28;20790;-51
2023/03/26 01:19:46;;;;;;;1.60;1.03;;;8.50;99.90;;;;;;5173872;28;21260;-51
2023/03/26 01:22:25;;;;;;;3.97;1.30;;;8.50;99.90;;;;;;5160756;28;20476;-52
2023/03/26 01:24:56;;;;;;;1.70;0.90;;;8.50;99.90;;;;;;5164899;28;20433;-52
2023/03/26 01:27:45;;;;;;;1.93;1.30;;;8.50;99.90;;;;;;5161656;28;20975;-51
2023/03/26 01:30:15;;;;;;;4.93;1.60;;;8.40;99.90;;;;;;5164094;28;20232;-51
2023/03/26 01:32:56;;;;;;;0.70;0.70;;;8.40;99.90;;;;;;5157474;28;20500;-51
2023/03/26 01:35:41;;;;;;;1.23;1.13;;;8.40;99.90;;;;;;5164674;28;20185;-50
2023/03/26 01:38:39;;;;;;;1.63;1.53;;;8.30;99.90;;;;;;5164488;28;20502;-52
2023/03/26 01:41:31;;;;;;;1.23;1.10;;;8.30;99.90;;;;;;5159165;28;20992;-50
2023/03/26 01:44:32;;;;;;;5.07;1.00;;;8.30;99.90;;;;;;5158850;28;20504;-52
2023/03/26 01:47:05;;;;;;;3.07;1.27;;;8.20;99.90;;;;;;5154390;28;20433;-51
2023/03/26 01:49:35;;;;;;;2.80;1.07;;;8.20;99.90;;;;;;5158995;28;20540;-51
2023/03/26 01:52:23;;;;;;;1.97;0.83;;;8.10;99.90;;;;;;5157979;28;20511;-50
2023/03/26 01:54:55;;;;;;;3.57;0.90;;;8.10;99.90;;;;;;5155635;28;20543;-51
2023/03/26 01:57:36;;;;;;;1.17;0.80;;;8.00;99.90;;;;;;5163992;28;20444;-51
2023/03/26 02:00:13;;;;;;;0.77;0.77;;;7.90;99.90;;;;;;5163768;28;20432;-51
2023/03/26 02:02:58;;;;;;;2.47;0.60;;;8.00;99.90;;;;;;5163215;28;20843;-51
2023/03/26 02:05:55;;;;;;;0.63;0.60;;;7.90;99.90;;;;;;5165347;28;20934;-51
2023/03/26 02:08:36;;;;;;;4.27;0.60;;;8.00;99.90;;;;;;5167905;28;20450;-51
2023/03/26 02:11:11;;;;;;;1.80;0.97;;;8.00;99.90;;;;;;5157910;28;20469;-51
2023/03/26 02:13:44;;;;;;;2.67;0.90;;;8.10;99.90;;;;;;5162668;28;20470;-51
2023/03/26 02:16:16;;;;;;;0.90;0.60;;;8.10;99.90;;;;;;5165273;28;20445;-50
2023/03/26 02:18:50;;;;;;;0.80;0.80;;;8.10;99.90;;;;;;5174847;28;20517;-51
2023/03/26 02:21:24;;;;;;;2.00;0.80;;;8.10;99.90;;;;;;5164754;28;20456;-52
2023/03/26 02:24:01;;;;;;;1.27;0.73;;;8.00;99.90;;;;;;5156692;28;20828;-50
2023/03/26 02:26:33;;;;;;;6.03;0.87;;;8.00;99.90;;;;;;5159529;28;20433;-51
2023/03/26 02:29:04;;;;;;;1.50;0.80;;;7.90;99.90;;;;;;5161610;28;20437;-51
2023/03/26 02:31:35;;;;;;;1.90;1.10;;;7.80;99.90;;;;;;5171895;28;20434;-50
2023/03/26 02:34:06;;;;;;;1.83;0.80;;;7.90;99.90;;;;;;5156214;28;20216;-50
2023/03/26 02:36:36;;;;;;;2.27;1.27;;;7.60;99.90;;;;;;5157869;28;20440;-50
2023/03/26 02:39:13;;;;;;;3.03;1.43;;;7.50;99.90;;;;;;5167100;28;20189;-51
2023/03/26 02:41:43;;;;;;;8.03;1.53;;;7.40;99.90;;;;;;5163365;28;20189;-50
2023/03/26 02:44:14;;;;;;;1.60;1.50;;;7.40;99.90;;;;;;5174813;28;20550;-51
2023/03/26 02:46:45;;;;;;;7.30;1.90;;;7.20;99.90;;;;;;5159827;28;20547;-50
2023/03/26 02:49:16;;;;;;;5.80;1.50;;;7.20;99.90;;;;;;5165971;28;20193;-52
2023/03/26 02:51:46;;;;;;;1.43;1.33;;;7.30;99.90;;;;;;5162054;28;20212;-51
2023/03/26 02:54:17;;;;;;;5.37;1.70;;;7.30;99.90;;;;;;5162555;28;20504;-50
2023/03/26 02:56:48;;;;;;;2.33;1.47;;;7.30;99.90;;;;;;5164838;28;20270;-51
2023/03/26 02:59:18;;;;;;;4.27;1.80;;;7.40;99.90;;;;;;5160560;28;20268;-50
2023/03/26 03:01:49;;;;;;;3.30;1.70;;;7.40;99.90;;;;;;5165084;28;20256;-50
2023/03/26 03:04:20;;;;;;;1.33;1.23;;;7.40;99.90;;;;;;5156802;28;20205;-51
2023/03/26 03:06:56;;;;;;;4.87;1.30;;;7.60;99.90;;;;;;5159736;28;20323;-50
2023/03/26 03:09:26;;;;;;;1.83;1.03;;;7.60;99.90;;;;;;5163950;28;20439;-51
2023/03/26 03:11:57;;;;;;;0.97;0.90;;;7.70;99.90;;;;;;5166504;28;20786;-51
2023/03/26 03:14:28;;;;;;;1.70;1.37;;;7.70;99.90;;;;;;5145819;28;20220;-51
2023/03/26 03:16:58;;;;;;;2.50;1.70;;;7.70;99.90;;;;;;5173807;28;20228;-52
2023/03/26 03:19:29;;;;;;;2.50;1.80;;;7.70;99.90;;;;;;5163053;28;20205;-50
2023/03/26 03:21:59;;;;;;;17.00;1.53;;;7.80;99.90;;;;;;5162944;28;20201;-51
2023/03/26 03:24:32;;;;;;;2.53;1.00;;;7.90;99.90;;;;;;5160184;28;20526;-50
2023/03/26 03:27:03;;;;;;;3.40;0.97;;;7.80;99.90;;;;;;5160930;28;20182;-51
2023/03/26 03:29:34;;;;;;;1.20;1.10;;;7.80;99.90;;;;;;5160930;28;20462;-51
2023/03/26 03:32:05;;;;;;;4.83;1.67;;;7.80;99.90;;;;;;5155518;28;20440;-52
2023/03/26 03:34:37;;;;;;;2.50;1.40;;;7.90;99.90;;;;;;5172924;28;20437;-51
2023/03/26 03:37:08;;;;;;;2.00;1.60;;;7.90;99.90;;;;;;5166328;28;20184;-50
2023/03/26 03:39:38;;;;;;;2.60;1.90;;;7.90;99.90;;;;;;5161147;28;20436;-51
2023/03/26 03:42:09;;;;;;;3.70;1.13;;;8.00;99.90;;;;;;5161210;28;20704;-51
2023/03/26 03:44:40;;;;;;;3.43;1.20;;;8.00;99.90;;;;;;5160861;28;20173;-50
2023/03/26 03:47:12;;;;;;;1.70;1.60;;;8.00;99.90;;;;;;5162515;28;20663;-50
2023/03/26 03:49:43;;;;;;;2.60;1.40;;;8.00;99.90;;;;;;5160348;28;20182;-52
2023/03/26 03:52:13;;;;;;;1.90;1.80;;;7.90;99.90;;;;;;5157024;28;20450;-51
2023/03/26 03:54:44;;;;;;;2.67;1.97;;;7.90;99.90;;;;;;5158280;28;20193;-51
2023/03/26 03:57:17;;;;;;;2.87;1.50;;;8.10;99.90;;;;;;5160499;28;20185;-51
2023/03/26 03:59:48;;;;;;;4.20;1.60;;;8.00;99.90;;;;;;5171119;28;20718;-50
2023/03/26 04:02:24;;;;;;;2.20;2.00;;;7.90;99.90;;;;;;5164585;28;20565;-52
2023/03/26 04:04:58;;;;;;;3.17;1.67;;;8.00;99.90;;;;;;5159446;28;20440;-52
2023/03/26 04:07:32;;;;;;;2.80;1.67;;;8.00;99.90;;;;;;5161225;28;20510;-50
2023/03/26 04:10:04;;;;;;;2.93;1.50;;;8.00;99.90;;;;;;5161114;28;20448;-50
2023/03/26 04:12:35;;;;;;;1.20;1.10;;;8.00;99.90;;;;;;5159930;28;20928;-51
2023/03/26 04:15:06;;;;;;;5.13;1.33;;;8.00;99.90;;;;;;5160438;28;20432;-51
2023/03/26 04:17:41;;;;;;;3.63;1.37;;;8.00;99.90;;;;;;5165892;28;20645;-49
2023/03/26 04:20:15;;;;;;;4.70;1.37;;;8.00;99.90;;;;;;5163645;28;20259;-49
2023/03/26 04:22:45;;;;;;;4.40;1.10;;;7.90;99.90;;;;;;5163242;28;20530;-50
2023/03/26 04:25:16;;;;;;;1.50;1.23;;;7.90;99.90;;;;;;5167942;28;20440;-52
2023/03/26 04:27:47;;;;;;;1.50;1.40;;;7.80;99.90;;;;;;5162250;28;20716;-51
2023/03/26 04:30:19;;;;;;;5.83;2.07;;;7.90;99.90;;;;;;5165126;28;20667;-51
2023/03/26 04:32:50;;;;;;;1.50;1.40;;;7.90;99.90;;;;;;5174219;28;20468;-52
2023/03/26 04:35:22;;;;;;;5.83;1.50;;;7.90;99.90;;;;;;5165181;28;20526;-51
2023/03/26 04:37:53;;;;;;;1.87;1.77;;;8.00;99.90;;;;;;5164289;28;20441;-52
2023/03/26 04:40:23;;;;;;;1.33;1.33;;;8.00;99.90;;;;;;5165173;28;20854;-50
2023/03/26 04:42:57;;;;;;;4.60;1.97;;;7.90;99.90;;;;;;5173214;28;20575;-51
2023/03/26 04:45:29;;;;;;;4.67;1.73;;;7.90;99.90;;;;;;5179954;28;20184;-52
2023/03/26 04:48:01;;;;;;;2.83;0.90;;;7.90;99.90;;;;;;5173181;28;20436;-50
2023/03/26 04:50:32;;;;;;;2.60;1.40;;;7.90;99.90;;;;;;5164495;28;20511;-52
2023/03/26 04:53:03;;;;;;;3.90;1.33;;;7.90;99.90;;;;;;5160830;28;20602;-50
2023/03/26 04:55:56;;;;;;;5.30;1.83;;;7.90;99.90;;;;;;5164029;28;20792;-51
2023/03/26 04:58:31;;;;;;;4.77;1.60;;;7.90;99.90;;;;;;5169020;28;20446;-51
2023/03/26 05:01:04;;;;;;;1.80;1.47;;;7.90;99.90;;;;;;5161295;28;20443;-53
2023/03/26 05:03:38;;;;;;;2.33;1.07;;;7.90;99.90;;;;;;5162308;28;21031;-50
2023/03/26 05:06:10;;;;;;;3.87;1.43;;;7.80;99.90;;;;;;5157358;28;20467;-49
2023/03/26 05:08:40;;;;;;;1.70;1.03;;;7.80;99.90;;;;;;5164217;28;20432;-50
2023/03/26 05:11:11;;;;;;;2.00;1.53;;;7.90;99.90;;;;;;5163595;28;20996;-51
2023/03/26 05:13:42;;;;;;;3.80;1.13;;;8.00;99.90;;;;;;5166613;28;20727;-49
2023/03/26 05:16:14;;;;;;;4.77;1.23;;;8.00;99.90;;;;;;5167670;28;20188;-50
2023/03/26 05:18:45;;;;;;;3.60;1.40;;;8.00;99.90;;;;;;5166395;28;20598;-51
2023/03/26 05:21:16;;;;;;;2.00;1.30;;;7.90;99.90;;;;;;5166367;28;20586;-51
2023/03/26 05:23:47;;;;;;;2.10;1.63;;;7.90;99.90;;;;;;5165198;28;20475;-50
2023/03/26 05:26:18;;;;;;;1.47;1.37;;;7.90;99.90;;;;;;5155034;28;20182;-50
2023/03/26 05:28:49;;;;;;;2.93;1.30;;;8.00;99.90;;;;;;5170968;28;20188;-50
2023/03/26 05:31:20;;;;;;;4.43;1.63;;;8.10;99.90;;;;;;5164087;28;20443;-52
2023/03/26 05:33:51;;;;;;;10.73;2.03;;;8.00;99.90;;;;;;5159552;28;20291;-51
2023/03/26 05:36:22;;;;;;;5.13;1.60;;;8.00;99.90;;;;;;5165929;28;20519;-50
2023/03/26 05:38:53;;;;;;;2.00;1.60;;;8.00;99.90;;;;;;5162028;28;20177;-51
2023/03/26 05:41:24;;;;;;;2.53;1.60;;;8.00;99.90;;;;;;5163144;28;21020;-50
2023/03/26 05:43:54;;;;;;;3.37;1.87;;;8.00;99.90;;;;;;5167725;28;20575;-51
2023/03/26 05:46:26;;;;;;;7.00;1.73;;;8.00;99.90;;;;;;5165055;28;20928;-50
2023/03/26 05:48:56;;;;;;;1.30;1.27;;;8.20;99.90;;;;;;5165439;28;20177;-50
2023/03/26 05:51:27;;;;;;;2.00;1.90;;;8.10;99.90;;;;;;5165344;28;20437;-50
2023/03/26 05:53:57;;;;;;;4.97;1.60;;;8.20;99.90;;;;;;5169141;28;20220;-52
2023/03/26 05:56:28;;;;;;;4.50;1.37;;;8.10;99.90;;;;;;5163617;28;20188;-50
2023/03/26 05:58:59;;;;;;;4.03;1.30;;;8.10;99.90;;;;;;5158083;28;20208;-52
2023/03/26 06:01:29;;;;;;;3.07;1.20;;;8.10;99.90;;;;;;5162694;28;20183;-51
2023/03/26 06:04:00;;;;;;;3.70;1.17;;;8.20;99.90;;;;;;5166364;28;20217;-50
2023/03/26 06:06:31;;;;;;;3.40;1.20;;;8.10;99.90;;;;;;5156650;28;20322;-51
2023/03/26 06:09:03;;;;;;;1.23;1.13;;;8.10;99.90;;;;;;5167018;28;20177;-52
2023/03/26 06:11:33;;;;;;;5.30;1.60;;;8.10;99.90;;;;;;5161968;28;20184;-51
2023/03/26 06:14:05;;;;;;;4.70;2.00;;;8.00;99.90;;;;;;5167210;28;20812;-51
2023/03/26 06:16:36;;;;;;;1.83;1.57;;;7.80;99.90;;;;;;5161502;28;20196;-51
2023/03/26 06:19:07;;;;;;;5.07;1.30;;;7.70;99.90;;;;;;5162077;28;20444;-52
2023/03/26 06:21:37;;;;;;;0.80;0.80;;;7.70;99.90;;;;;;5170409;28;20246;-51
2023/03/26 06:24:08;;;;;;;1.57;0.80;;;7.50;99.90;;;;;;5164084;28;20242;-51
2023/03/26 06:26:39;;;;;;;2.83;0.70;;;7.50;99.90;;;;;;5158565;28;20187;-52
2023/03/26 06:29:09;;;;;;;2.77;0.90;;;7.30;99.90;;;;;;5170706;28;20185;-52
2023/03/26 06:31:40;;;;;;;2.00;0.87;;;7.30;99.90;;;;;;5162164;28;20228;-52
2023/03/26 06:34:11;;;;;;;0.70;0.60;;;7.30;99.90;;;;;;5160929;28;20205;-52
2023/03/26 06:36:42;;;;;;;2.13;0.90;;;7.30;99.90;;;;;;5165279;28;20547;-51
2023/03/26 06:39:12;;;;;;;1.23;1.23;;;7.40;99.90;;;;;;5163834;28;20193;-53
2023/03/26 06:41:44;;;;;;;2.63;1.00;;;7.50;99.90;;;;;;5168072;28;20236;-52
2023/03/26 06:44:15;;;;;;;0.97;0.87;;;7.60;99.90;;;;;;5170224;28;20200;-51
2023/03/26 06:46:45;;;;;;;3.80;1.30;;;7.70;99.90;;;;;;5165485;28;20446;-52
2023/03/26 06:49:16;;;;;;;5.40;1.10;;;7.80;99.90;;;;;;5173392;28;20189;-50
2023/03/26 06:51:47;;;;;;;0.90;0.83;;;7.70;99.90;;;;;;5163897;28;20220;-51
2023/03/26 06:54:17;;;;;;;1.43;0.93;;;7.70;99.90;;;;;;5148699;28;20233;-52
2023/03/26 06:56:48;;;;;;;11.20;1.10;;;7.80;99.90;;;;;;5166266;28;20260;-51
2023/03/26 06:59:19;;;;;;;6.07;1.40;;;7.90;99.90;;;;;;5154196;28;20199;-54
2023/03/26 07:01:49;;;;;;;1.77;1.13;;;8.00;99.90;;;;;;5156954;28;20631;-51
2023/03/26 07:04:20;;;;;;;2.73;0.80;;;8.30;99.90;;;;;;5163435;28;20287;-52
2023/03/26 07:06:51;;;;;;;1.07;0.90;;;9.40;99.90;;;;;;5157155;28;20269;-52
2023/03/26 07:09:21;;;;;;;8.60;1.13;;;11.10;99.90;;;;;;5160654;28;20193;-51
2023/03/26 07:11:52;;;;;;;2.40;1.07;;;11.40;99.90;;;;;;5155666;28;20184;-51
2023/03/26 07:14:23;;;;;;;1.90;1.30;;;12.00;99.90;;;;;;5160459;28;20231;-52
2023/03/26 07:16:54;;;;;;;4.70;1.20;;;12.60;99.90;;;;;;5156260;28;20185;-51
2023/03/26 07:19:25;;;;;;;3.10;1.00;;;13.00;99.90;;;;;;5152059;28;20452;-53
2023/03/26 07:21:56;;;;;;;3.17;1.13;;;12.50;99.90;;;;;;5156621;28;20196;-51
2023/03/26 07:24:27;;;;;;;2.67;1.50;;;12.20;99.90;;;;;;5157142;28;20574;-51
2023/03/26 07:27:09;;;;;;;3.90;1.30;;;12.20;99.90;;;;;;5158337;28;21003;-52
2023/03/26 07:29:49;;;;;;;2.40;1.10;;;14.00;99.90;;;;;;5155735;28;20546;-52
2023/03/26 07:32:34;;;;;;;0.80;0.80;;;15.10;95.00;;;;;;5154895;28;20465;-51
2023/03/26 07:35:19;;;;;;;3.13;1.20;;;15.00;91.40;;;;;;5162777;28;20497;-52
2023/03/26 07:37:55;;;;;;;2.50;1.13;;;13.80;95.70;;;;;;5157526;28;20857;-51
2023/03/26 07:40:44;;;;;;;6.53;1.50;;;12.70;99.80;;;;;;5165268;28;20454;-52
2023/03/26 07:43:38;;;;;;;2.20;0.93;;;11.60;99.90;;;;;;5165904;28;20472;-51
2023/03/26 07:46:11;;;;;;;6.30;1.30;;;11.40;99.90;;;;;;5157829;28;20807;-50
2023/03/26 07:48:46;;;;;;;7.77;1.20;;;11.20;99.90;;;;;;5167068;28;20442;-52
2023/03/26 07:51:17;;;;;;;2.43;1.50;;;11.20;99.90;;;;;;5163782;28;20521;-50
2023/03/26 07:53:48;;;;;;;1.20;0.80;;;11.00;99.90;;;;;;5160157;28;20467;-54
2023/03/26 07:56:36;;;;;;;4.13;0.73;;;10.70;99.90;;;;;;5163988;28;20248;-54
2023/03/26 07:59:16;;;;;;;1.13;1.03;;;10.50;99.90;;;;;;5163129;28;20216;-52
2023/03/26 08:01:52;;;;;;;3.20;1.57;;;10.20;99.90;;;;;;5160640;28;20539;-51
2023/03/26 08:04:39;;;;;;;1.47;0.93;;;10.20;99.90;;;;;;5156048;28;20551;-52
2023/03/26 08:07:33;;;;;;;3.60;1.10;;;9.90;99.90;;;;;;5165460;28;20981;-52
2023/03/26 08:10:20;;;;;;;4.30;1.17;;;9.80;99.90;;;;;;5159574;28;20558;-52
2023/03/26 08:13:09;;;;;;;4.83;1.63;;;9.70;99.90;;;;;;5159450;28;20563;-50
2023/03/26 08:15:56;;;;;;;3.43;1.70;;;9.70;99.90;;;;;;5159155;28;20444;-51
2023/03/26 08:18:40;;;;;;;8.10;1.70;;;9.80;99.90;;;;;;5157266;28;20467;-51
2023/03/26 08:21:15;;;;;;;10.00;1.80;;;9.70;99.90;;;;;;5159772;28;20450;-51
2023/03/26 08:24:18;;;;;;;2.87;1.67;;;9.80;99.90;;;;;;5161047;28;21813;-52
2023/03/26 08:26:56;;;;;;;1.43;1.33;;;10.20;99.90;;;;;;5162539;28;20436;-52
2023/03/26 08:29:48;;;;;;;6.50;1.77;;;10.50;99.90;;;;;;5157617;28;21113;-53
2023/03/26 08:32:20;;;;;;;2.80;1.97;;;10.80;99.90;;;;;;5162142;28;20487;-52
2023/03/26 08:34:51;;;;;;;6.73;2.20;;;11.10;99.90;;;;;;5167612;28;20491;-53
2023/03/26 08:37:22;;;;;;;7.87;2.03;;;11.40;99.90;;;;;;5164214;28;20467;-52
2023/03/26 08:39:53;;;;;;;5.80;2.00;;;11.60;99.90;;;;;;5166924;28;20198;-52
2023/03/26 08:42:23;;;;;;;3.80;2.07;;;11.60;99.90;;;;;;5169724;28;20213;-52
2023/03/26 08:45:33;;;;;;;3.97;2.27;;;11.70;99.90;;;;;;5157886;28;20182;-51
2023/03/26 08:48:29;;;;;;;5.20;1.80;;;11.70;99.90;;;;;;5165101;28;20207;-52
2023/03/26 08:51:09;;;;;;;2.30;1.40;;;11.00;99.90;;;;;;5160058;28;20505;-53
2023/03/26 08:54:08;;;;;;;3.47;1.83;;;10.80;99.90;;;;;;5157102;28;20597;-52
2023/03/26 08:57:17;;;;;;;2.63;1.57;;;10.10;99.90;;;;;;5162021;28;20467;-51
2023/03/26 08:59:54;;;;;;;4.63;1.40;;;9.70;99.90;;;;;;5155039;28;20463;-53
2023/03/26 09:02:55;;;;;;;5.70;1.67;;;9.20;99.90;;;;;;5164022;28;20483;-52
2023/03/26 09:05:26;;;;;;;2.27;1.33;;;9.10;99.90;;;;;;5163194;28;20799;-52
2023/03/26 09:08:20;;;;;;;8.77;1.70;;;8.80;99.90;;;;;;5159508;28;20436;-52
2023/03/26 09:10:54;;;;;;;3.07;2.77;;;8.80;99.90;;;;;;5161863;28;20284;-53
2023/03/26 09:13:49;;;;;;;2.87;1.27;;;9.00;99.90;;;;;;5159775;28;20506;-51
2023/03/26 09:16:55;;;;;;;5.10;1.73;;;9.20;99.90;;;;;;5161944;28;20432;-53
2023/03/26 09:19:44;;;;;;;2.13;1.70;;;9.40;99.90;;;;;;5162798;28;20454;-52
2023/03/26 09:22:35;;;;;;;3.53;1.40;;;9.40;99.90;;;;;;5162235;28;20507;-54
2023/03/26 09:25:24;;;;;;;4.63;1.87;;;9.40;99.90;;;;;;5163643;28;20524;-52
2023/03/26 09:28:09;;;;;;;8.03;2.13;;;9.20;99.90;;;;;;5163427;28;20436;-53
2023/03/26 09:31:11;;;;;;;7.43;2.50;;;9.00;99.90;;;;;;5164450;28;20441;-54
2023/03/26 09:34:11;;;;;;;3.70;1.80;;;8.70;99.90;;;;;;5159160;28;20456;-54
2023/03/26 09:37:15;;;;;;;2.50;1.50;;;8.30;99.90;;;;;;5167439;28;20450;-53
2023/03/26 09:40:10;;;;;;;2.23;1.90;;;7.90;99.90;;;;;;5173478;28;20437;-52
2023/03/26 09:42:48;;;;;;;3.33;1.40;;;7.70;99.90;;;;;;5158115;28;21056;-51
2023/03/26 09:45:34;;;;;;;5.00;2.10;;;7.80;99.90;;;;;;5145365;28;20459;-54
2023/03/26 09:48:29;;;;;;;2.83;1.70;;;7.70;99.90;;;;;;5158902;28;20436;-53
2023/03/26 09:51:28;;;;;;;3.00;2.53;;;7.70;99.90;;;;;;5153724;28;20448;-53
2023/03/26 09:54:13;;;;;;;22.17;2.00;;;7.80;99.90;;;;;;5156797;28;20885;-53
2023/03/26 09:57:10;;;;;;;4.33;1.40;;;7.70;99.90;;;;;;5156154;28;20436;-52
2023/03/26 09:59:47;;;;;;;3.70;1.30;;;7.70;99.90;;;;;;5165655;28;20444;-51
2023/03/26 10:02:39;;;;;;;4.87;1.00;;;7.70;99.90;;;;;;5165250;28;20471;-52
2023/03/26 10:05:51;;;;;;;3.87;1.73;;;7.70;99.90;;;;;;5166639;28;20443;-53
2023/03/26 10:08:28;;;;;;;2.90;2.27;;;7.70;99.90;;;;;;5186939;28;20540;-55
2023/03/26 10:11:50;;;;;;;14.63;2.93;;;7.70;99.90;;;;;;5154320;28;20436;-54
2023/03/26 10:14:25;;;;;;;6.30;3.00;;;7.60;99.90;;;;;;5163409;28;20837;-54
2023/03/26 10:17:11;;;;;;;9.47;4.70;;;7.70;99.90;;;;;;5161382;28;20485;-55
2023/03/26 10:20:18;;;;;;;10.23;3.53;;;7.90;99.90;;;;;;5176874;28;20949;-53
2023/03/26 10:22:58;;;;;;;3.47;2.37;;;8.10;99.90;;;;;;5156701;28;20476;-53
2023/03/26 10:25:31;;;;;;;8.73;2.40;;;8.30;99.90;;;;;;5161611;28;20451;-52
2023/03/26 10:28:40;;;;;;;8.03;3.17;;;8.40;99.90;;;;;;5166925;28;20471;-51
2023/03/26 10:32:02;;;;;;;14.33;3.70;;;8.50;99.90;;;;;;5160643;28;20435;-52
2023/03/26 10:34:47;;;;;;;10.57;3.73;;;8.70;99.90;;;;;;5162335;28;20523;-51
2023/03/26 10:37:35;;;;;;;5.60;3.07;;;9.00;99.90;;;;;;5162174;28;20451;-51
2023/03/26 10:40:19;;;;;;;2.97;2.77;;;9.10;99.90;;;;;;5155862;28;20517;-51
2023/03/26 10:43:09;;;;;;;4.20;2.73;;;9.00;99.90;;;;;;5180778;28;20494;-50
2023/03/26 10:46:01;;;;;;;7.20;2.77;;;9.10;99.90;;;;;;5164505;28;20484;-53
2023/03/26 10:48:49;;;;;;;10.50;2.73;;;9.00;99.90;;;;;;5160591;28;20791;-51
2023/03/26 10:51:23;;;;;;;28.47;11.57;;;8.80;99.90;;;;;;5155418;28;20452;-52
2023/03/26 10:54:05;;;;;;;13.20;5.33;;;8.50;99.90;;;;;;5166958;28;20479;-52
2023/03/26 10:56:45;;;;;;;6.60;3.20;;;8.60;99.90;;;;;;5150349;28;20538;-51
2023/03/26 10:59:17;;;;;;;5.20;2.27;;;8.60;99.90;;;;;;5166592;28;20454;-52
2023/03/26 11:02:25;;;;;;;5.27;2.10;;;8.70;99.90;;;;;;5151183;28;20587;-52
2023/03/26 11:05:25;;;;;;;5.97;2.03;;;8.90;99.90;;;;;;5153462;28;20436;-55
2023/03/26 11:08:32;;;;;;;7.10;3.60;;;9.30;99.90;;;;;;5157110;28;20459;-50
2023/03/26 11:11:11;;;;;;;9.20;5.47;;;9.60;99.90;;;;;;5156678;28;21146;-51
2023/03/26 11:14:07;;;;;;;5.60;3.07;;;10.00;99.90;;;;;;5156783;28;20534;-54
2023/03/26 11:17:03;;;;;;;4.90;2.67;;;10.20;99.90;;;;;;5154873;28;20440;-50
2023/03/26 11:19:52;;;;;;;4.10;2.43;;;10.50;99.90;;;;;;5156275;28;20443;-50
2023/03/26 11:22:36;;;;;;;5.27;2.10;;;10.60;99.90;;;;;;5159360;28;20513;-53
2023/03/26 11:25:25;;;;;;;2.50;2.30;;;10.90;99.90;;;;;;5156089;28;20444;-53
2023/03/26 11:28:29;;;;;;;6.20;4.53;;;11.30;99.90;;;;;;5152800;28;20440;-54
2023/03/26 11:31:21;;;;;;;15.07;3.50;;;11.40;99.90;;;;;;5159512;28;20443;-54
2023/03/26 11:33:57;;;;;;;4.40;2.90;;;11.40;99.90;;;;;;5150522;28;20476;-53
2023/03/26 11:36:36;;;;;;;7.40;2.50;;;11.70;99.90;;;;;;5160354;28;20531;-53
2023/03/26 11:39:14;;;;;;;5.87;3.43;;;11.90;99.90;;;;;;5149884;28;21010;-52
2023/03/26 11:41:46;;;;;;;5.13;2.57;;;12.10;99.90;;;;;;5151113;28;20747;-53
2023/03/26 11:44:31;;;;;;;8.07;3.30;;;11.60;99.90;;;;;;5139948;28;20913;-53
2023/03/26 11:47:08;;;;;;;8.90;2.90;;;11.70;99.90;;;;;;5157267;28;20440;-51
2023/03/26 11:49:40;;;;;;;2.53;1.80;;;11.70;99.90;;;;;;5138976;28;20436;-52
2023/03/26 11:52:11;;;;;;;5.73;3.20;;;11.60;99.90;;;;;;5154376;28;20455;-52
2023/03/26 11:54:47;;;;;;;6.93;2.40;;;11.40;99.90;;;;;;5160016;28;20530;-52
2023/03/26 11:57:25;;;;;;;5.97;2.70;;;11.30;99.90;;;;;;5156391;28;20447;-52
2023/03/26 12:00:15;;;;;;;7.57;2.60;;;11.50;99.90;;;;;;5159256;28;20444;-53
2023/03/26 12:02:47;;;;;;;1.73;1.60;;;11.50;99.90;;;;;;5158941;28;20568;-53
2023/03/26 12:05:28;;;;;;;3.90;1.63;;;11.50;99.90;;;;;;5157600;28;20435;-53
2023/03/26 12:08:01;;;;;;;7.70;2.00;;;11.80;99.90;;;;;;5159117;28;20796;-52
2023/03/26 12:10:41;;;;;;;3.70;2.40;;;12.00;99.90;;;;;;5162408;28;20455;-54
2023/03/26 12:13:34;;;;;;;6.13;2.53;;;12.30;99.90;;;;;;5152743;28;20464;-54
2023/03/26 12:16:15;;;;;;;5.37;3.57;;;12.20;99.90;;;;;;5158048;28;20457;-52
2023/03/26 12:18:57;;;;;;;6.37;3.97;;;12.30;99.90;;;;;;5159277;28;20531;-52
2023/03/26 12:21:28;;;;;;;3.63;2.30;;;12.20;99.90;;;;;;5162300;28;20933;-53
2023/03/26 12:24:04;;;;;;;13.23;4.00;;;12.20;99.90;;;;;;5161970;28;20526;-53
2023/03/26 12:26:41;;;;;;;4.30;2.50;;;12.30;99.90;;;;;;5159617;28;20185;-51
2023/03/26 12:29:14;;;;;;;12.00;2.53;;;12.60;99.90;;;;;;5162591;28;20505;-52
2023/03/26 12:31:56;;;;;;;6.43;2.27;;;12.80;99.90;;;;;;5159229;28;20440;-52
2023/03/26 12:34:36;;;;;;;7.67;2.87;;;13.00;99.90;;;;;;5161780;28;20447;-54
2023/03/26 12:37:27;;;;;;;5.80;3.50;;;13.00;99.90;;;;;;5161700;28;20458;-51
2023/03/26 12:40:33;;;;;;;13.07;5.60;;;12.80;99.90;;;;;;5157465;28;20440;-53
2023/03/26 12:43:19;;;;;;;3.40;2.50;;;12.70;99.90;;;;;;5165658;28;20507;-53
2023/03/26 12:45:54;;;;;;;14.53;8.00;;;12.80;99.90;;;;;;5163516;28;20436;-54
2023/03/26 12:48:25;;;;;;;4.43;2.00;;;13.00;99.90;;;;;;5163515;28;20431;-54
2023/03/26 12:51:34;;;;;;;5.43;1.60;;;13.20;99.90;;;;;;5162082;28;20442;-53
2023/03/26 12:54:32;;;;;;;5.03;2.80;;;13.10;99.90;;;;;;5158903;28;20300;-52
2023/03/26 12:57:06;;;;;;;4.03;1.53;;;13.20;99.90;;;;;;5165207;28;20496;-52
2023/03/26 12:59:45;;;;;;;2.53;2.20;;;13.40;99.90;;;;;;5162751;28;20440;-53
2023/03/26 13:02:58;;;;;;;6.10;3.40;;;13.40;99.90;;;;;;5157615;28;20448;-54
2023/03/26 13:05:54;;;;;;;6.37;4.40;;;13.50;99.20;;;;;;5157131;28;20440;-53
2023/03/26 13:08:33;;;;;;;3.10;2.40;;;13.60;97.80;;;;;;5159490;28;20440;-53
2023/03/26 13:11:23;;;;;;;9.90;4.23;;;13.20;96.80;;;;;;5157620;28;20490;-55
2023/03/26 13:14:12;;;;;;;11.30;6.60;;;13.10;97.40;;;;;;5163316;28;20455;-52
2023/03/26 13:17:08;;;;;;;5.40;4.03;;;13.20;97.30;;;;;;5154156;28;20987;-53
2023/03/26 13:19:42;;;;;;;12.27;6.13;;;13.00;96.60;;;;;;5160041;28;20440;-53
2023/03/26 13:22:24;;;;;;;13.00;4.87;;;12.90;97.80;;;;;;5166389;28;20482;-54
2023/03/26 13:25:36;;;;;;;2.30;1.90;;;13.10;97.50;;;;;;5157830;28;20480;-54
2023/03/26 13:28:25;;;;;;;12.63;6.00;;;13.10;96.00;;;;;;5153350;28;20828;-51
2023/03/26 13:31:15;;;;;;;4.50;1.87;;;13.00;96.60;;;;;;5162644;28;20436;-53
2023/03/26 13:34:13;;;;;;;2.77;1.87;;;12.90;95.80;;;;;;5157413;28;20464;-52
2023/03/26 13:37:02;;;;;;;5.60;3.90;;;12.70;95.10;;;;;;5157991;28;20483;-52
2023/03/26 13:39:52;;;;;;;2.30;1.00;;;12.70;95.60;;;;;;5160554;28;20948;-53
2023/03/26 13:42:42;;;;;;;4.37;2.00;;;12.60;94.50;;;;;;5160029;28;20452;-52
2023/03/26 13:45:34;;;;;;;2.33;1.30;;;12.30;95.00;;;;;;5158459;28;20925;-53
2023/03/26 13:48:12;;;;;;;1.73;1.10;;;12.10;96.00;;;;;;5161474;28;20476;-54
2023/03/26 13:51:00;;;;;;;2.20;1.90;;;12.10;96.50;;;;;;5159836;28;20486;-54
2023/03/26 13:53:56;;;;;;;2.20;2.00;;;12.10;97.00;;;;;;5166317;28;20480;-55